Time;durP1;ratioP1;P1;durP2;ratioP2;P2;SDS_P1;SDS_P2;PMS_P1;PMS_P2;Temp;Humidity;BMP_temperature;BMP_pressure;BME280_temperature;BME280_humidity;BME280_pressure;Samples;Min_cycle;Max_cycle;Signal;HPM_P1;HPM_P2
2022/06/09 00:01:39;;;;;;;5.30;4.05;;;20.70;89.60;;;;;;5054370;28;20111;-66
2022/06/09 00:04:14;;;;;;;4.85;3.80;;;20.70;89.30;;;;;;5053889;28;20226;-67
2022/06/09 00:06:46;;;;;;;4.03;3.53;;;20.70;89.40;;;;;;5054583;28;20385;-65
2022/06/09 00:09:13;;;;;;;4.55;3.80;;;20.70;89.50;;;;;;5053429;28;20496;-66
2022/06/09 00:11:43;;;;;;;4.03;3.38;;;20.70;89.60;;;;;;5058440;28;20480;-66
2022/06/09 00:14:09;;;;;;;5.07;4.07;;;20.70;89.70;;;;;;5059765;28;20036;-66
2022/06/09 00:16:36;;;;;;;4.90;3.35;;;20.80;89.70;;;;;;5054003;28;20419;-66
2022/06/09 00:19:02;;;;;;;5.32;3.83;;;20.80;89.90;;;;;;5053799;28;20029;-66
2022/06/09 00:21:27;;;;;;;4.38;3.97;;;20.80;89.60;;;;;;5054362;28;20032;-66
2022/06/09 00:23:53;;;;;;;5.25;3.17;;;20.90;89.60;;;;;;5053804;28;20086;-66
2022/06/09 00:26:18;;;;;;;3.78;3.05;;;20.90;89.60;;;;;;5060134;28;20021;-66
2022/06/09 00:28:44;;;;;;;4.75;3.35;;;20.90;89.20;;;;;;5056664;28;20317;-66
2022/06/09 00:31:10;;;;;;;4.47;3.42;;;20.90;89.00;;;;;;5054814;28;20037;-65
2022/06/09 00:33:35;;;;;;;4.95;3.47;;;20.90;89.00;;;;;;5053511;28;20128;-65
2022/06/09 00:36:01;;;;;;;3.42;3.13;;;20.90;88.70;;;;;;5053391;28;20044;-66
2022/06/09 00:38:27;;;;;;;3.90;3.13;;;21.00;88.50;;;;;;5062429;28;20549;-66
2022/06/09 00:40:57;;;;;;;5.07;3.50;;;21.00;88.30;;;;;;5067710;28;20033;-66
2022/06/09 00:43:23;;;;;;;4.43;2.90;;;21.00;87.90;;;;;;5071522;28;20103;-65
2022/06/09 00:46:10;;;;;;;6.28;3.63;;;21.10;87.70;;;;;;5068287;28;20148;-65
2022/06/09 00:48:51;;;;;;;3.80;3.33;;;21.10;87.40;;;;;;5064220;28;20472;-65
2022/06/09 00:51:55;;;;;;;3.25;2.60;;;21.10;87.10;;;;;;5069053;28;20123;-66
2022/06/09 00:54:38;;;;;;;4.05;2.63;;;21.10;86.90;;;;;;5010908;28;20568;-65
2022/06/09 00:57:25;;;;;;;3.30;3.00;;;21.10;86.80;;;;;;5062485;28;20044;-66
2022/06/09 00:59:55;;;;;;;3.83;3.03;;;21.10;86.50;;;;;;5073384;28;20480;-66
2022/06/09 01:02:21;;;;;;;3.33;2.80;;;21.20;86.50;;;;;;5058277;28;20044;-66
2022/06/09 01:04:50;;;;;;;3.40;2.45;;;21.20;86.40;;;;;;5053056;28;20052;-66
2022/06/09 01:07:20;;;;;;;3.45;2.70;;;21.20;86.50;;;;;;5060181;28;20116;-66
2022/06/09 01:09:45;;;;;;;4.18;3.13;;;21.20;86.30;;;;;;5093076;28;20024;-66
2022/06/09 01:12:32;;;;;;;4.35;2.67;;;21.20;86.30;;;;;;5069378;28;20040;-66
2022/06/09 01:15:06;;;;;;;3.55;2.75;;;21.20;86.20;;;;;;5052962;28;20052;-66
2022/06/09 01:18:09;;;;;;;4.80;2.80;;;21.20;86.10;;;;;;5064680;28;20482;-66
2022/06/09 01:21:10;;;;;;;3.47;2.40;;;21.10;86.10;;;;;;5067122;28;20083;-66
2022/06/09 01:23:55;;;;;;;3.28;2.40;;;21.10;86.30;;;;;;5010271;28;20056;-65
2022/06/09 01:26:20;;;;;;;4.07;2.10;;;21.10;86.10;;;;;;5052334;28;20033;-66
2022/06/09 01:28:48;;;;;;;3.80;2.72;;;21.10;86.20;;;;;;5059082;28;20037;-66
2022/06/09 01:31:36;;;;;;;3.53;2.50;;;21.00;86.40;;;;;;5057430;28;20035;-66
2022/06/09 01:34:05;;;;;;;2.95;2.60;;;21.00;86.50;;;;;;5070836;28;20055;-66
2022/06/09 01:36:51;;;;;;;3.47;2.67;;;20.90;86.40;;;;;;5056604;28;20040;-67
2022/06/09 01:39:17;;;;;;;3.20;2.30;;;20.90;86.90;;;;;;5070854;28;20353;-66
2022/06/09 01:41:47;;;;;;;3.67;2.60;;;20.90;87.20;;;;;;5057220;28;20051;-67
2022/06/09 01:44:14;;;;;;;4.05;2.50;;;20.90;86.60;;;;;;5071480;28;20048;-66
2022/06/09 01:46:44;;;;;;;3.58;2.38;;;20.80;86.70;;;;;;5057050;28;20025;-67
2022/06/09 01:49:15;;;;;;;3.78;2.28;;;20.80;86.50;;;;;;5052470;28;20029;-67
2022/06/09 01:51:44;;;;;;;2.50;2.15;;;20.80;86.40;;;;;;5056940;28;20039;-67
2022/06/09 01:54:15;;;;;;;2.90;2.13;;;20.80;86.30;;;;;;5054067;28;20025;-65
2022/06/09 01:56:53;;;;;;;3.22;2.25;;;20.80;86.20;;;;;;5056923;28;20028;-66
2022/06/09 01:59:24;;;;;;;2.83;2.22;;;20.80;86.10;;;;;;5052794;28;20029;-66
2022/06/09 02:02:00;;;;;;;2.92;1.80;;;20.70;85.50;;;;;;5058309;28;20032;-66
2022/06/09 02:04:37;;;;;;;3.15;2.17;;;20.60;85.60;;;;;;5051537;28;20033;-66
2022/06/09 02:07:06;;;;;;;3.63;2.10;;;20.60;85.50;;;;;;5064015;28;20072;-66
2022/06/09 02:09:34;;;;;;;2.15;1.83;;;20.60;85.40;;;;;;5051661;28;20036;-65
2022/06/09 02:12:09;;;;;;;3.05;1.90;;;20.60;85.40;;;;;;5056426;28;20063;-66
2022/06/09 02:14:36;;;;;;;2.97;1.92;;;20.60;85.30;;;;;;5064071;28;20040;-65
2022/06/09 02:17:04;;;;;;;2.58;1.80;;;20.60;85.20;;;;;;5061603;28;20028;-65
2022/06/09 02:19:30;;;;;;;3.10;2.20;;;20.50;85.00;;;;;;5071162;28;20486;-66
2022/06/09 02:21:57;;;;;;;3.13;2.20;;;20.40;85.10;;;;;;5055626;28;20036;-66
2022/06/09 02:24:23;;;;;;;2.08;1.80;;;20.40;84.80;;;;;;5051450;28;20029;-66
2022/06/09 02:26:48;;;;;;;3.53;2.00;;;20.30;84.90;;;;;;5052368;28;20025;-66
2022/06/09 02:29:14;;;;;;;5.95;1.85;;;20.30;85.00;;;;;;5051649;28;20471;-65
2022/06/09 02:31:40;;;;;;;3.00;2.00;;;20.20;85.00;;;;;;5059497;28;20176;-65
2022/06/09 02:34:06;;;;;;;2.95;2.15;;;20.20;85.10;;;;;;5070887;28;20075;-65
2022/06/09 02:36:32;;;;;;;3.17;2.13;;;20.20;85.10;;;;;;5052100;28;20484;-66
2022/06/09 02:38:57;;;;;;;2.53;1.92;;;20.30;85.10;;;;;;5051280;28;20017;-66
2022/06/09 02:41:23;;;;;;;3.60;1.80;;;20.30;85.20;;;;;;5053802;28;20025;-66
2022/06/09 02:43:48;;;;;;;2.95;1.75;;;20.20;85.10;;;;;;5069502;28;20032;-66
2022/06/09 02:46:14;;;;;;;3.40;1.90;;;20.20;84.80;;;;;;5068662;28;20032;-65
2022/06/09 02:48:40;;;;;;;3.22;2.05;;;20.20;84.70;;;;;;5051217;28;20315;-65
2022/06/09 02:51:23;;;;;;;3.33;2.05;;;20.20;84.80;;;;;;5051581;28;20556;-66
2022/06/09 02:53:48;;;;;;;3.50;2.20;;;20.10;84.70;;;;;;5064747;28;20025;-65
2022/06/09 02:56:14;;;;;;;4.05;2.00;;;20.10;84.80;;;;;;5051738;28;20048;-65
2022/06/09 02:58:40;;;;;;;3.28;2.00;;;20.10;84.80;;;;;;5070862;28;20082;-66
2022/06/09 03:01:07;;;;;;;3.70;2.10;;;20.10;84.80;;;;;;5068129;28;20021;-66
2022/06/09 03:03:32;;;;;;;3.03;1.90;;;20.10;85.00;;;;;;5071284;28;20027;-66
2022/06/09 03:05:58;;;;;;;4.22;2.10;;;20.00;85.00;;;;;;5069335;28;20107;-66
2022/06/09 03:08:23;;;;;;;3.50;2.20;;;20.00;85.20;;;;;;5057046;28;20053;-66
2022/06/09 03:10:49;;;;;;;2.45;1.77;;;19.90;85.30;;;;;;5063963;28;20040;-67
2022/06/09 03:13:14;;;;;;;2.83;1.80;;;19.90;85.60;;;;;;5068928;28;20027;-69
2022/06/09 03:15:40;;;;;;;3.33;2.08;;;19.80;85.70;;;;;;5073042;28;20036;-70
2022/06/09 03:18:05;;;;;;;3.35;1.90;;;19.80;85.70;;;;;;5072942;28;20052;-70
2022/06/09 03:20:31;;;;;;;2.90;2.03;;;19.80;86.00;;;;;;5063057;28;20419;-70
2022/06/09 03:22:57;;;;;;;3.92;2.20;;;19.80;86.00;;;;;;5068519;28;20494;-69
2022/06/09 03:25:23;;;;;;;3.13;2.15;;;19.80;86.10;;;;;;5072791;28;20105;-69
2022/06/09 03:27:49;;;;;;;2.70;1.80;;;19.80;86.20;;;;;;5063021;28;20037;-70
2022/06/09 03:30:15;;;;;;;2.92;1.83;;;19.80;86.00;;;;;;5053465;28;20032;-70
2022/06/09 03:32:41;;;;;;;3.20;1.92;;;19.80;86.00;;;;;;5055304;28;20040;-70
2022/06/09 03:35:08;;;;;;;2.58;1.88;;;19.70;86.00;;;;;;5054791;28;20036;-68
2022/06/09 03:37:34;;;;;;;3.33;1.65;;;19.70;86.10;;;;;;5066607;28;20082;-67
2022/06/09 03:39:59;;;;;;;3.15;1.90;;;19.70;86.20;;;;;;5071386;28;20039;-68
2022/06/09 03:42:25;;;;;;;2.88;1.90;;;19.70;86.20;;;;;;5072897;28;20411;-68
2022/06/09 03:44:50;;;;;;;3.05;1.73;;;19.80;86.00;;;;;;5066800;28;20025;-68
2022/06/09 03:47:16;;;;;;;2.63;1.90;;;19.70;86.10;;;;;;5054639;28;20028;-68
2022/06/09 03:49:41;;;;;;;3.25;1.60;;;19.70;86.30;;;;;;5054866;28;20468;-68
2022/06/09 03:52:07;;;;;;;4.00;1.90;;;19.70;86.20;;;;;;5062342;28;20123;-68
2022/06/09 03:54:33;;;;;;;4.20;2.10;;;19.70;86.30;;;;;;5070160;28;20060;-68
2022/06/09 03:56:59;;;;;;;3.08;2.20;;;19.70;86.40;;;;;;5053397;28;20032;-68
2022/06/09 03:59:24;;;;;;;3.10;2.00;;;19.70;86.50;;;;;;5069395;28;20017;-68
2022/06/09 04:01:50;;;;;;;2.78;2.30;;;19.70;86.60;;;;;;5060514;28;20021;-68
2022/06/09 04:04:15;;;;;;;3.50;1.98;;;19.70;86.70;;;;;;5072794;28;20032;-68
2022/06/09 04:06:41;;;;;;;2.83;1.85;;;19.70;86.80;;;;;;5069579;28;20115;-68
2022/06/09 04:09:07;;;;;;;3.65;2.13;;;19.70;86.90;;;;;;5054487;28;20081;-68
2022/06/09 04:11:33;;;;;;;2.80;2.20;;;19.70;87.00;;;;;;5057418;28;20151;-68
2022/06/09 04:14:00;;;;;;;2.83;2.15;;;19.70;87.00;;;;;;5063391;28;20468;-68
2022/06/09 04:16:35;;;;;;;4.00;2.10;;;19.70;87.00;;;;;;5070017;28;20318;-68
2022/06/09 04:19:05;;;;;;;2.80;2.00;;;19.80;87.00;;;;;;5067661;28;20033;-68
2022/06/09 04:21:32;;;;;;;4.45;2.55;;;19.80;87.10;;;;;;5053892;28;20032;-68
2022/06/09 04:23:58;;;;;;;3.47;2.13;;;19.80;86.90;;;;;;5054719;28;20116;-68
2022/06/09 04:26:26;;;;;;;4.45;1.80;;;19.90;87.00;;;;;;5052955;28;20025;-68
2022/06/09 04:28:52;;;;;;;5.60;2.75;;;19.80;86.90;;;;;;5053848;28;20515;-68
2022/06/09 04:31:19;;;;;;;4.47;2.00;;;19.80;86.90;;;;;;5057528;28;20505;-68
2022/06/09 04:33:44;;;;;;;2.70;1.88;;;19.80;87.10;;;;;;5055422;28;20025;-67
2022/06/09 04:36:12;;;;;;;3.38;2.00;;;19.80;87.10;;;;;;5054488;28;20400;-68
2022/06/09 04:38:38;;;;;;;3.83;1.83;;;19.90;87.10;;;;;;5073531;28;20380;-68
2022/06/09 04:41:09;;;;;;;3.20;1.90;;;19.90;87.00;;;;;;5058712;28;20040;-68
2022/06/09 04:43:45;;;;;;;3.58;2.10;;;19.90;87.10;;;;;;5073487;28;20032;-68
2022/06/09 04:46:13;;;;;;;3.85;2.00;;;19.90;87.10;;;;;;5064182;28;20052;-68
2022/06/09 04:48:39;;;;;;;3.83;2.08;;;20.00;87.10;;;;;;5067555;28;20025;-68
2022/06/09 04:51:06;;;;;;;5.05;2.33;;;19.90;87.20;;;;;;5063780;28;20399;-69
2022/06/09 04:53:33;;;;;;;5.00;1.95;;;19.90;87.30;;;;;;5052849;28;20021;-68
2022/06/09 04:55:58;;;;;;;2.40;1.70;;;19.90;87.70;;;;;;5055036;28;20033;-68
2022/06/09 04:58:24;;;;;;;3.38;2.10;;;20.00;87.50;;;;;;5070857;28;20044;-70
2022/06/09 05:00:50;;;;;;;3.78;1.73;;;20.00;87.40;;;;;;5054805;28;20501;-70
2022/06/09 05:03:16;;;;;;;3.88;1.73;;;20.10;87.40;;;;;;5069125;28;20048;-70
2022/06/09 05:05:45;;;;;;;3.30;1.83;;;20.20;87.30;;;;;;5055191;28;20418;-70
2022/06/09 05:08:14;;;;;;;5.50;2.47;;;20.30;87.50;;;;;;5063440;28;20051;-70
2022/06/09 05:10:41;;;;;;;4.05;2.15;;;20.40;87.10;;;;;;5066073;28;20450;-70
2022/06/09 05:13:07;;;;;;;2.97;1.95;;;20.50;87.20;;;;;;5068406;28;20480;-69
2022/06/09 05:15:47;;;;;;;3.55;1.73;;;20.70;87.00;;;;;;5066993;28;20029;-69
2022/06/09 05:18:13;;;;;;;5.13;1.90;;;20.80;86.20;;;;;;5057640;28;20046;-69
2022/06/09 05:20:38;;;;;;;5.00;1.80;;;20.90;85.80;;;;;;5061918;28;20500;-69
2022/06/09 05:23:04;;;;;;;3.25;1.90;;;21.00;85.70;;;;;;5056266;28;20036;-68
2022/06/09 05:25:29;;;;;;;3.60;2.10;;;21.10;85.10;;;;;;5058313;28;20020;-69
2022/06/09 05:27:55;;;;;;;3.15;1.80;;;21.20;85.00;;;;;;5061947;28;20507;-68
2022/06/09 05:30:23;;;;;;;3.17;1.70;;;21.20;85.40;;;;;;5052492;28;20471;-69
2022/06/09 05:32:49;;;;;;;3.88;1.88;;;21.30;85.00;;;;;;5057573;28;20044;-68
2022/06/09 05:35:16;;;;;;;5.25;1.83;;;21.30;84.70;;;;;;5051762;28;20415;-68
2022/06/09 05:45:58;;;;;;;2.70;1.40;;;21.40;83.80;;;;;;5061965;28;20127;-68
2022/06/09 05:48:24;;;;;;;7.40;1.80;;;21.50;83.50;;;;;;5065794;28;20454;-69
2022/06/09 05:50:51;;;;;;;11.80;2.75;;;21.50;83.50;;;;;;5068327;28;20052;-68
2022/06/09 05:53:16;;;;;;;2.42;1.60;;;21.50;83.20;;;;;;5069110;28;20029;-69
2022/06/09 05:55:42;;;;;;;3.20;1.55;;;21.50;83.10;;;;;;5070531;28;20035;-68
2022/06/09 05:58:08;;;;;;;4.32;2.10;;;21.50;83.70;;;;;;5060542;28;20082;-68
2022/06/09 06:00:34;;;;;;;4.30;1.70;;;21.60;83.70;;;;;;5070677;28;20497;-68
2022/06/09 06:02:59;;;;;;;5.75;2.30;;;21.70;83.90;;;;;;5065437;28;20024;-69
2022/06/09 06:08:09;;;;;;;1.83;1.30;;;21.70;83.90;;;;;;5065928;28;20412;-68
2022/06/09 06:10:35;;;;;;;3.20;1.55;;;21.70;84.10;;;;;;5070212;28;20040;-68
2022/06/09 06:13:01;;;;;;;2.42;1.58;;;21.80;83.80;;;;;;5060119;28;20024;-69
2022/06/09 06:15:26;;;;;;;2.67;1.35;;;21.90;83.70;;;;;;5068724;28;20175;-69
2022/06/09 06:17:55;;;;;;;3.15;1.88;;;22.00;82.50;;;;;;5068416;28;20055;-69
2022/06/09 06:20:21;;;;;;;2.97;1.33;;;21.90;82.80;;;;;;5070029;28;20036;-69
2022/06/09 06:22:47;;;;;;;2.78;1.50;;;22.00;82.20;;;;;;5059264;28;20479;-69
2022/06/09 06:25:13;;;;;;;2.53;1.40;;;22.00;82.00;;;;;;5070268;28;20025;-68
2022/06/09 06:27:38;;;;;;;27.70;1.70;;;22.10;82.00;;;;;;5059175;28;20041;-69
2022/06/09 06:30:05;;;;;;;2.05;1.27;;;22.10;81.60;;;;;;5069507;28;20027;-69
2022/06/09 06:32:31;;;;;;;3.92;1.67;;;22.00;81.60;;;;;;5056181;28;20063;-69
2022/06/09 06:34:57;;;;;;;2.67;1.40;;;22.00;81.70;;;;;;5071884;28;20024;-69
2022/06/09 06:37:23;;;;;;;2.20;1.20;;;22.10;81.80;;;;;;5068631;28;20025;-69
2022/06/09 06:39:49;;;;;;;5.03;1.63;;;22.20;82.00;;;;;;5066236;28;20032;-69
2022/06/09 06:42:15;;;;;;;1.83;1.20;;;22.40;81.80;;;;;;5067280;28;20031;-69
2022/06/09 06:44:40;;;;;;;3.97;1.85;;;22.50;82.00;;;;;;5070121;28;20591;-69
2022/06/09 06:47:06;;;;;;;2.78;1.40;;;22.70;81.50;;;;;;5063126;28;20052;-69
2022/06/09 06:49:31;;;;;;;3.03;1.40;;;22.80;81.50;;;;;;5066690;28;20025;-70
2022/06/09 06:51:57;;;;;;;3.10;1.42;;;22.90;81.60;;;;;;5069290;28;20044;-69
2022/06/09 06:54:22;;;;;;;2.97;1.50;;;23.10;82.00;;;;;;5077824;28;20039;-70
2022/06/09 06:56:48;;;;;;;2.70;1.58;;;23.20;81.00;;;;;;5072699;28;20029;-70
2022/06/09 06:59:13;;;;;;;6.82;1.75;;;23.20;80.40;;;;;;5072761;28;20384;-70
2022/06/09 07:01:40;;;;;;;3.75;1.63;;;23.30;80.60;;;;;;5071557;28;20460;-70
2022/06/09 07:04:06;;;;;;;3.17;1.55;;;23.40;80.60;;;;;;5056676;28;20036;-70
2022/06/09 07:06:32;;;;;;;5.32;1.70;;;23.40;80.40;;;;;;5063556;28;20025;-70
2022/06/09 07:08:58;;;;;;;6.30;1.80;;;23.50;79.70;;;;;;5071214;28;20079;-70
2022/06/09 07:11:24;;;;;;;4.72;1.58;;;23.60;79.20;;;;;;5067902;28;20040;-70
2022/06/09 07:13:50;;;;;;;3.97;1.55;;;23.60;79.40;;;;;;5063563;28;20047;-69
2022/06/09 07:16:16;;;;;;;2.65;1.35;;;23.50;79.60;;;;;;5071285;28;20033;-70
2022/06/09 07:18:42;;;;;;;2.10;1.27;;;23.50;79.00;;;;;;5060376;28;20479;-70
2022/06/09 07:21:09;;;;;;;4.45;1.38;;;23.50;78.30;;;;;;5072104;28;20059;-70
2022/06/09 07:23:36;;;;;;;4.13;1.60;;;23.50;78.10;;;;;;5058524;28;20024;-71
2022/06/09 07:26:03;;;;;;;2.70;1.60;;;23.40;78.20;;;;;;5058902;28;20039;-70
2022/06/09 07:28:28;;;;;;;3.80;1.65;;;23.40;78.20;;;;;;5066195;28;20020;-70
2022/06/09 07:30:56;;;;;;;2.42;1.33;;;23.40;78.40;;;;;;5073274;28;20044;-70
2022/06/09 07:33:24;;;;;;;4.32;1.50;;;23.30;78.50;;;;;;5064899;28;20455;-70
2022/06/09 07:35:52;;;;;;;2.70;1.50;;;23.20;78.60;;;;;;5073455;28;20048;-70
2022/06/09 07:38:18;;;;;;;2.40;1.30;;;23.10;78.60;;;;;;5063220;28;20021;-70
2022/06/09 07:40:44;;;;;;;3.35;1.55;;;23.00;78.70;;;;;;5073542;28;20045;-70
2022/06/09 07:43:10;;;;;;;4.07;1.55;;;23.00;79.20;;;;;;5062165;28;20068;-70
2022/06/09 07:45:37;;;;;;;1.95;1.35;;;22.90;79.30;;;;;;5068823;28;20029;-71
2022/06/09 07:48:04;;;;;;;4.60;1.50;;;22.80;79.60;;;;;;5062917;28;20056;-70
2022/06/09 07:50:31;;;;;;;2.67;1.40;;;22.70;79.80;;;;;;5060493;28;20071;-71
2022/06/09 07:52:57;;;;;;;3.58;2.25;;;22.60;80.00;;;;;;5060033;28;20028;-70
2022/06/09 07:55:22;;;;;;;5.07;1.92;;;22.50;79.90;;;;;;5071167;28;20464;-71
2022/06/09 07:57:48;;;;;;;5.85;1.65;;;22.60;80.00;;;;;;5059062;28;20467;-70
2022/06/09 08:00:15;;;;;;;2.97;1.60;;;22.60;80.10;;;;;;5072646;28;20037;-71
2022/06/09 08:02:43;;;;;;;3.80;1.60;;;22.60;80.20;;;;;;5068659;28;20496;-69
2022/06/09 08:05:09;;;;;;;3.42;1.73;;;22.60;80.40;;;;;;5072474;28;20087;-69
2022/06/09 08:07:35;;;;;;;3.70;1.90;;;22.60;80.60;;;;;;5068645;28;20055;-69
2022/06/09 08:10:01;;;;;;;3.47;1.80;;;22.60;81.00;;;;;;5072823;28;20480;-69
2022/06/09 08:12:27;;;;;;;3.17;1.80;;;22.60;80.70;;;;;;5054931;28;20098;-69
2022/06/09 08:14:52;;;;;;;3.72;1.80;;;22.70;81.50;;;;;;5055673;28;20020;-69
2022/06/09 08:17:18;;;;;;;4.82;1.67;;;22.70;81.20;;;;;;5069136;28;20544;-69
2022/06/09 08:19:45;;;;;;;3.78;1.90;;;22.70;81.60;;;;;;5072640;28;20027;-69
2022/06/09 08:22:11;;;;;;;3.85;2.00;;;22.70;81.30;;;;;;5062838;28;20024;-70
2022/06/09 08:24:36;;;;;;;4.78;2.30;;;22.60;81.60;;;;;;5070337;28;20115;-70
2022/06/09 08:27:03;;;;;;;3.80;1.70;;;22.50;81.50;;;;;;5064804;28;20483;-69
2022/06/09 08:29:29;;;;;;;4.00;1.83;;;22.50;81.80;;;;;;5072253;28;20074;-69
2022/06/09 08:31:55;;;;;;;2.40;1.65;;;22.40;82.30;;;;;;5063204;28;20037;-69
2022/06/09 08:34:21;;;;;;;4.57;2.03;;;22.40;82.40;;;;;;5069857;28;20024;-69
2022/06/09 08:36:47;;;;;;;4.07;2.15;;;22.30;82.50;;;;;;5066658;28;20036;-70
2022/06/09 08:39:13;;;;;;;2.70;1.50;;;22.30;82.80;;;;;;5069825;28;20024;-70
2022/06/09 08:42:07;;;;;;;2.90;2.10;;;22.20;83.30;;;;;;5068695;28;20031;-68
2022/06/09 08:44:36;;;;;;;;;;;22.20;83.10;;;;;;5068566;28;20151;-68
2022/06/09 08:47:11;;;;;;;3.17;1.92;;;22.10;82.60;;;;;;5065537;28;19911;-69
2022/06/09 08:49:51;;;;;;;2.45;1.80;;;22.00;83.90;;;;;;5070751;28;20036;-69
2022/06/09 08:52:55;;;;;;;3.28;1.65;;;22.00;84.00;;;;;;5065923;28;20099;-68
2022/06/09 08:55:38;;;;;;;4.13;2.15;;;22.00;84.40;;;;;;5083379;28;20037;-69
2022/06/09 08:58:30;;;;;;;4.25;1.80;;;21.90;85.10;;;;;;5058785;28;20029;-68
2022/06/09 09:01:12;;;;;;;4.47;2.00;;;21.90;85.70;;;;;;5064464;28;20031;-68
2022/06/09 09:03:48;;;;;;;3.53;1.65;;;21.80;86.40;;;;;;5069653;28;20543;-67
2022/06/09 09:06:29;;;;;;;4.07;1.90;;;21.80;86.90;;;;;;5075359;28;20028;-69
2022/06/09 09:09:06;;;;;;;4.13;2.05;;;21.80;87.20;;;;;;5070653;28;20087;-69
2022/06/09 09:12:04;;;;;;;3.47;2.28;;;21.80;87.50;;;;;;5075438;28;20029;-70
2022/06/09 09:14:39;;;;;;;4.95;2.10;;;21.70;87.60;;;;;;5076073;28;20032;-69
2022/06/09 09:17:20;;;;;;;3.03;2.13;;;21.70;88.00;;;;;;5069240;28;20119;-71
2022/06/09 09:20:00;;;;;;;3.78;2.05;;;21.70;88.50;;;;;;5068152;28;20063;-69
2022/06/09 09:22:49;;;;;;;3.45;1.95;;;21.70;88.40;;;;;;5063785;28;20100;-69
2022/06/09 09:25:43;;;;;;;4.28;2.22;;;21.70;88.70;;;;;;5096358;28;20112;-74
2022/06/09 09:28:23;;;;;;;5.07;2.22;;;21.60;88.50;;;;;;5064137;28;20056;-73
2022/06/09 09:30:49;;;;;;;4.82;2.78;;;21.70;89.20;;;;;;5068019;28;20377;-75
2022/06/09 09:33:19;;;;;;;5.30;2.28;;;21.70;89.50;;;;;;5059967;28;20044;-74
2022/06/09 09:35:50;;;;;;;2.70;2.15;;;21.70;89.50;;;;;;5086814;28;20029;-74
2022/06/09 09:38:19;;;;;;;3.58;2.10;;;21.70;89.30;;;;;;5056852;28;20032;-73
2022/06/09 09:40:48;;;;;;;4.50;2.80;;;21.70;89.50;;;;;;5061510;28;20028;-73
2022/06/09 09:43:23;;;;;;;3.25;2.40;;;21.70;89.70;;;;;;5067477;28;20567;-75
2022/06/09 09:45:52;;;;;;;3.63;2.20;;;21.70;89.80;;;;;;5070978;28;20507;-76
2022/06/09 09:48:18;;;;;;;4.47;2.25;;;21.80;90.00;;;;;;5053803;28;20070;-74
2022/06/09 09:51:11;;;;;;;6.93;2.85;;;21.80;90.00;;;;;;5063625;28;20024;-76
2022/06/09 09:53:54;;;;;;;6.65;2.35;;;21.80;89.50;;;;;;5063952;28;20035;-76
2022/06/09 09:56:19;;;;;;;4.07;2.10;;;21.80;89.30;;;;;;5065633;28;20017;-76
2022/06/09 09:58:48;;;;;;;7.15;2.83;;;21.90;89.20;;;;;;5054383;28;20683;-76
2022/06/09 10:01:16;;;;;;;5.78;3.00;;;21.90;89.10;;;;;;5066014;28;20033;-76
2022/06/09 10:09:49;;;;;;;5.20;2.55;;;21.80;88.50;;;;;;5067304;28;20044;-76
2022/06/09 10:12:18;;;;;;;3.45;2.17;;;21.70;88.50;;;;;;5067336;28;20135;-76
2022/06/09 10:15:14;;;;;;;5.43;2.53;;;21.80;89.00;;;;;;5073057;28;20025;-76
2022/06/09 10:18:02;;;;;;;4.75;2.30;;;21.70;88.50;;;;;;5062840;28;20029;-78
2022/06/09 10:20:38;;;;;;;3.10;2.15;;;21.70;88.60;;;;;;5066263;28;20039;-75
2022/06/09 10:23:06;;;;;;;2.78;2.10;;;21.70;88.70;;;;;;5062261;28;20032;-74
2022/06/09 10:25:39;;;;;;;4.70;2.88;;;21.80;88.30;;;;;;5059555;28;20074;-73
2022/06/09 10:28:16;;;;;;;3.78;2.40;;;21.80;88.70;;;;;;5056811;28;20052;-73
2022/06/09 10:30:54;;;;;;;5.22;2.42;;;22.00;89.10;;;;;;5066719;28;20158;-74
2022/06/09 10:33:27;;;;;;;3.90;2.33;;;22.10;89.20;;;;;;5064719;28;20086;-75
2022/06/09 10:35:59;;;;;;;3.23;2.07;;;22.20;88.10;;;;;;5070168;28;20024;-78
2022/06/09 10:38:41;;;;;;;2.70;1.98;;;22.40;87.70;;;;;;5057532;28;20372;-73
2022/06/09 10:41:13;;;;;;;5.55;2.03;;;22.50;86.90;;;;;;5063479;28;20082;-72
2022/06/09 10:43:57;;;;;;;5.30;2.63;;;22.60;86.20;;;;;;5068458;28;20036;-75
2022/06/09 10:46:36;;;;;;;3.85;2.58;;;22.70;85.90;;;;;;5072949;28;20090;-78
2022/06/09 10:55:16;;;;;;;4.53;2.80;;;22.90;84.40;;;;;;5062011;28;20103;-74
2022/06/09 10:58:08;;;;;;;5.20;2.40;;;22.90;84.10;;;;;;5067416;28;20028;-74
2022/06/09 11:00:36;;;;;;;3.67;2.50;;;22.80;83.70;;;;;;5065198;28;20025;-73
2022/06/09 11:03:23;;;;;;;4.35;2.75;;;22.80;83.40;;;;;;5060046;28;20078;-73
2022/06/09 11:06:18;;;;;;;4.47;2.47;;;22.80;83.10;;;;;;5064665;28;20478;-72
2022/06/09 11:08:43;;;;;;;;;;;22.70;83.10;;;;;;5061623;28;20063;-72
2022/06/09 11:11:09;;;;;;;3.15;2.45;;;22.70;83.20;;;;;;5065873;28;20363;-72
2022/06/09 11:13:59;;;;;;;4.55;2.65;;;22.60;83.40;;;;;;5062624;28;20495;-71
2022/06/09 11:16:43;;;;;;;4.78;2.80;;;22.60;82.90;;;;;;5081904;28;20079;-71
2022/06/09 11:19:18;;;;;;;5.50;2.95;;;22.60;82.60;;;;;;5057926;28;20029;-72
2022/06/09 11:22:04;;;;;;;3.67;2.75;;;22.50;82.60;;;;;;5062190;28;20032;-73
2022/06/09 11:24:43;;;;;;;4.93;2.78;;;22.50;82.70;;;;;;5057963;28;20054;-72
2022/06/09 11:27:30;;;;;;;4.00;2.97;;;22.50;82.80;;;;;;5050326;28;20090;-74
2022/06/09 11:30:20;;;;;;;8.27;2.92;;;22.40;82.70;;;;;;5068372;28;20032;-73
2022/06/09 11:33:12;;;;;;;3.78;3.10;;;22.40;82.60;;;;;;5068734;28;20029;-73
2022/06/09 11:35:40;;;;;;;5.85;3.70;;;22.30;83.10;;;;;;5061933;28;20453;-74
2022/06/09 11:38:34;;;;;;;6.07;2.88;;;22.20;82.90;;;;;;5067005;28;20024;-73
2022/06/09 11:41:25;;;;;;;4.75;3.40;;;22.10;83.10;;;;;;5066615;28;20392;-73
2022/06/09 11:44:15;;;;;;;4.43;3.08;;;22.10;83.20;;;;;;5065665;28;20055;-73
2022/06/09 11:46:43;;;;;;;5.03;3.17;;;22.10;83.80;;;;;;5067409;28;20068;-74
2022/06/09 11:49:34;;;;;;;5.88;3.15;;;22.10;84.00;;;;;;5065892;28;20044;-72
2022/06/09 11:52:04;;;;;;;7.28;3.58;;;22.10;84.00;;;;;;5081396;28;20048;-73
2022/06/09 11:54:38;;;;;;;4.47;3.28;;;22.10;84.00;;;;;;5070786;28;20067;-72
2022/06/09 11:57:16;;;;;;;5.78;3.05;;;22.20;84.40;;;;;;5055378;28;20458;-73
2022/06/09 12:00:15;;;;;;;4.03;3.10;;;22.20;84.00;;;;;;5060331;28;20024;-72
2022/06/09 12:03:18;;;;;;;6.07;3.25;;;22.20;83.90;;;;;;5069419;28;20374;-73
2022/06/09 12:06:00;;;;;;;4.18;3.13;;;22.20;83.80;;;;;;5067064;28;20029;-74
2022/06/09 12:08:45;;;;;;;5.82;3.40;;;22.30;83.70;;;;;;5068344;28;20720;-74
2022/06/09 12:11:19;;;;;;;6.57;3.38;;;22.30;83.50;;;;;;5069216;28;20474;-74
2022/06/09 12:13:55;;;;;;;5.88;2.78;;;22.30;83.90;;;;;;5066919;28;20484;-73
2022/06/09 12:16:34;;;;;;;4.15;3.08;;;22.40;84.20;;;;;;5070322;28;20048;-73
2022/06/09 12:19:14;;;;;;;5.28;3.08;;;22.40;84.60;;;;;;5059323;28;20109;-73
2022/06/09 12:21:44;;;;;;;6.78;3.03;;;22.50;84.50;;;;;;5068806;28;20032;-73
2022/06/09 12:24:30;;;;;;;5.22;3.22;;;22.60;84.20;;;;;;5068862;28;20500;-74
2022/06/09 12:27:21;;;;;;;6.53;3.00;;;22.60;83.90;;;;;;5058501;28;20066;-81
2022/06/09 12:29:59;;;;;;;4.25;2.95;;;22.70;83.80;;;;;;5067272;28;20922;-73
2022/06/09 12:32:38;;;;;;;4.38;3.05;;;22.70;83.90;;;;;;5063549;28;20040;-70
2022/06/09 12:35:34;;;;;;;5.05;3.55;;;22.80;83.40;;;;;;5067253;28;20476;-70
2022/06/09 12:38:18;;;;;;;3.50;2.80;;;22.80;82.00;;;;;;5064108;28;20383;-70
2022/06/09 12:40:49;;;;;;;4.75;2.90;;;22.70;82.20;;;;;;5055669;28;20085;-71
2022/06/09 12:43:32;;;;;;;4.68;3.25;;;22.70;81.70;;;;;;5068547;28;20068;-70
2022/06/09 12:46:03;;;;;;;4.88;3.35;;;22.70;81.40;;;;;;5068686;28;20028;-71
2022/06/09 12:48:33;;;;;;;4.18;3.03;;;22.70;81.80;;;;;;5060426;28;20048;-69
2022/06/09 12:51:01;;;;;;;4.97;3.53;;;22.70;82.10;;;;;;5064715;28;20120;-70
2022/06/09 12:53:37;;;;;;;5.68;3.13;;;22.80;82.20;;;;;;5060575;28;20029;-69
2022/06/09 12:56:18;;;;;;;4.25;3.08;;;22.80;81.80;;;;;;5060408;28;20033;-70
2022/06/09 12:58:48;;;;;;;8.63;3.70;;;22.80;81.30;;;;;;5069608;28;20036;-71
2022/06/09 13:01:20;;;;;;;4.97;3.70;;;22.90;81.30;;;;;;5064832;28;20064;-71
2022/06/09 13:03:49;;;;;;;7.72;3.55;;;22.90;81.80;;;;;;5055569;28;20035;-71
2022/06/09 13:06:50;;;;;;;7.97;3.75;;;22.90;82.10;;;;;;5056363;28;20036;-70
2022/06/09 13:09:18;;;;;;;6.20;3.55;;;22.80;81.90;;;;;;5008404;28;20077;-71
2022/06/09 13:14:31;;;;;;;4.85;3.60;;;22.80;82.20;;;;;;5064969;28;22858;-70
2022/06/09 13:17:13;;;;;;;5.30;3.08;;;22.90;81.90;;;;;;5061265;28;20028;-70
2022/06/09 13:19:40;;;;;;;8.55;3.70;;;22.90;81.90;;;;;;5056578;28;20103;-70
2022/06/09 13:22:12;;;;;;;6.25;3.78;;;22.90;82.10;;;;;;5053100;28;20032;-70
2022/06/09 13:24:41;;;;;;;4.15;3.15;;;22.90;82.30;;;;;;5059939;28;20107;-67
2022/06/09 13:27:12;;;;;;;5.82;3.58;;;22.90;82.30;;;;;;5065769;28;20052;-70
2022/06/09 13:29:51;;;;;;;4.65;3.47;;;23.00;82.50;;;;;;5062847;28;20025;-70
2022/06/09 13:32:44;;;;;;;4.88;3.08;;;23.00;82.90;;;;;;5054562;28;20045;-70
2022/06/09 13:35:35;;;;;;;5.25;3.10;;;23.10;83.40;;;;;;5071279;28;20024;-69
2022/06/09 13:38:03;;;;;;;6.25;3.60;;;23.20;83.20;;;;;;5061981;28;20073;-69